sensor_id;sensor_type;location;lat;lon;timestamp;temperature;humidity
1063;DHT22;520;50.932;6.962;2023-03-13T00:02:26;12.60;98.40
1063;DHT22;520;50.932;6.962;2023-03-13T00:04:53;12.60;98.30
1063;DHT22;520;50.932;6.962;2023-03-13T00:07:22;12.60;98.30
1063;DHT22;520;50.932;6.962;2023-03-13T00:09:54;12.70;98.40
1063;DHT22;520;50.932;6.962;2023-03-13T00:12:21;12.60;98.30
1063;DHT22;520;50.932;6.962;2023-03-13T00:14:47;12.70;98.40
1063;DHT22;520;50.932;6.962;2023-03-13T00:17:14;12.70;98.30
1063;DHT22;520;50.932;6.962;2023-03-13T00:19:41;12.70;98.60
1063;DHT22;520;50.932;6.962;2023-03-13T00:22:07;12.60;98.40
1063;DHT22;520;50.932;6.962;2023-03-13T00:24:34;12.80;98.50
1063;DHT22;520;50.932;6.962;2023-03-13T00:27:00;12.80;98.20
1063;DHT22;520;50.932;6.962;2023-03-13T00:29:29;12.90;98.10
1063;DHT22;520;50.932;6.962;2023-03-13T00:31:57;12.80;98.10
1063;DHT22;520;50.932;6.962;2023-03-13T00:34:24;12.90;98.20
1063;DHT22;520;50.932;6.962;2023-03-13T00:36:53;12.90;98.20
1063;DHT22;520;50.932;6.962;2023-03-13T00:39:21;12.80;98.20
1063;DHT22;520;50.932;6.962;2023-03-13T00:41:47;12.80;98.50
1063;DHT22;520;50.932;6.962;2023-03-13T00:44:14;12.90;98.50
1063;DHT22;520;50.932;6.962;2023-03-13T00:46:41;12.90;98.50
1063;DHT22;520;50.932;6.962;2023-03-13T00:49:07;13.00;98.80
1063;DHT22;520;50.932;6.962;2023-03-13T00:51:34;13.00;98.90
1063;DHT22;520;50.932;6.962;2023-03-13T00:54:01;13.00;99.20
1063;DHT22;520;50.932;6.962;2023-03-13T00:56:29;12.80;99.40
1063;DHT22;520;50.932;6.962;2023-03-13T00:58:56;12.80;99.80
1063;DHT22;520;50.932;6.962;2023-03-13T01:01:28;12.80;99.90
1063;DHT22;520;50.932;6.962;2023-03-13T01:04:02;13.00;99.90
1063;DHT22;520;50.932;6.962;2023-03-13T01:06:30;12.80;99.90
1063;DHT22;520;50.932;6.962;2023-03-13T01:08:58;12.90;99.90
1063;DHT22;520;50.932;6.962;2023-03-13T01:11:27;12.90;99.90
1063;DHT22;520;50.932;6.962;2023-03-13T01:13:59;12.90;99.90
1063;DHT22;520;50.932;6.962;2023-03-13T01:16:28;13.00;99.90
1063;DHT22;520;50.932;6.962;2023-03-13T01:18:59;12.90;99.90
1063;DHT22;520;50.932;6.962;2023-03-13T01:21:27;13.00;99.90
1063;DHT22;520;50.932;6.962;2023-03-13T01:23:54;12.90;99.90
1063;DHT22;520;50.932;6.962;2023-03-13T01:26:21;13.00;99.90
1063;DHT22;520;50.932;6.962;2023-03-13T01:28:48;12.90;99.90
1063;DHT22;520;50.932;6.962;2023-03-13T01:31:27;13.00;99.90
1063;DHT22;520;50.932;6.962;2023-03-13T01:33:56;12.70;99.90
1063;DHT22;520;50.932;6.962;2023-03-13T01:36:25;12.80;99.90
1063;DHT22;520;50.932;6.962;2023-03-13T01:38:54;13.00;99.90
1063;DHT22;520;50.932;6.962;2023-03-13T01:41:22;13.00;99.90
1063;DHT22;520;50.932;6.962;2023-03-13T01:43:49;13.00;99.90
1063;DHT22;520;50.932;6.962;2023-03-13T01:46:24;13.00;99.90
1063;DHT22;520;50.932;6.962;2023-03-13T01:51:44;13.00;99.90
1063;DHT22;520;50.932;6.962;2023-03-13T01:54:26;12.80;99.90
1063;DHT22;520;50.932;6.962;2023-03-13T01:57:01;13.00;99.90
1063;DHT22;520;50.932;6.962;2023-03-13T01:59:45;13.30;99.90
1063;DHT22;520;50.932;6.962;2023-03-13T02:02:15;13.30;99.90
1063;DHT22;520;50.932;6.962;2023-03-13T02:04:48;13.30;99.90
1063;DHT22;520;50.932;6.962;2023-03-13T02:07:27;13.20;99.90
1063;DHT22;520;50.932;6.962;2023-03-13T02:09:55;13.20;99.90
1063;DHT22;520;50.932;6.962;2023-03-13T02:12:26;13.20;99.90
1063;DHT22;520;50.932;6.962;2023-03-13T02:14:56;13.30;99.90
1063;DHT22;520;50.932;6.962;2023-03-13T02:17:24;13.30;99.90
1063;DHT22;520;50.932;6.962;2023-03-13T02:19:52;13.30;99.90
1063;DHT22;520;50.932;6.962;2023-03-13T02:22:38;13.20;99.90
1063;DHT22;520;50.932;6.962;2023-03-13T02:28:23;13.20;99.90
1063;DHT22;520;50.932;6.962;2023-03-13T02:30:55;13.10;99.90
1063;DHT22;520;50.932;6.962;2023-03-13T02:33:30;13.20;99.90
1063;DHT22;520;50.932;6.962;2023-03-13T02:36:00;13.20;99.90
1063;DHT22;520;50.932;6.962;2023-03-13T02:38:33;13.20;99.90
1063;DHT22;520;50.932;6.962;2023-03-13T02:41:01;13.10;99.90
1063;DHT22;520;50.932;6.962;2023-03-13T02:43:37;13.20;99.90
1063;DHT22;520;50.932;6.962;2023-03-13T02:46:16;13.10;99.90
1063;DHT22;520;50.932;6.962;2023-03-13T02:48:48;13.00;99.90
1063;DHT22;520;50.932;6.962;2023-03-13T02:51:30;13.00;99.90
1063;DHT22;520;50.932;6.962;2023-03-13T02:54:02;13.00;99.90
1063;DHT22;520;50.932;6.962;2023-03-13T02:56:35;12.90;99.90
1063;DHT22;520;50.932;6.962;2023-03-13T02:59:03;12.80;99.90
1063;DHT22;520;50.932;6.962;2023-03-13T03:01:30;12.90;99.90
1063;DHT22;520;50.932;6.962;2023-03-13T03:03:58;12.90;99.90
1063;DHT22;520;50.932;6.962;2023-03-13T03:06:25;12.90;99.90
1063;DHT22;520;50.932;6.962;2023-03-13T03:08:52;12.90;99.90
1063;DHT22;520;50.932;6.962;2023-03-13T03:11:19;12.90;99.90
1063;DHT22;520;50.932;6.962;2023-03-13T03:13:46;12.90;99.90
1063;DHT22;520;50.932;6.962;2023-03-13T03:16:16;13.00;99.90
1063;DHT22;520;50.932;6.962;2023-03-13T03:18:46;12.90;99.90
1063;DHT22;520;50.932;6.962;2023-03-13T03:21:16;12.90;99.90
1063;DHT22;520;50.932;6.962;2023-03-13T03:23:46;13.00;99.90
1063;DHT22;520;50.932;6.962;2023-03-13T03:26:17;13.00;99.90
1063;DHT22;520;50.932;6.962;2023-03-13T03:28:44;12.90;99.90
1063;DHT22;520;50.932;6.962;2023-03-13T03:31:14;13.00;99.90
1063;DHT22;520;50.932;6.962;2023-03-13T03:33:42;13.10;99.90
1063;DHT22;520;50.932;6.962;2023-03-13T03:36:11;13.00;99.90
1063;DHT22;520;50.932;6.962;2023-03-13T03:38:41;13.00;99.90
1063;DHT22;520;50.932;6.962;2023-03-13T03:42:07;13.10;99.90
1063;DHT22;520;50.932;6.962;2023-03-13T03:44:35;13.10;99.90
1063;DHT22;520;50.932;6.962;2023-03-13T03:47:02;13.20;99.90
1063;DHT22;520;50.932;6.962;2023-03-13T03:49:29;13.10;99.90
1063;DHT22;520;50.932;6.962;2023-03-13T03:52:03;13.10;99.90
1063;DHT22;520;50.932;6.962;2023-03-13T03:54:30;13.20;99.90
1063;DHT22;520;50.932;6.962;2023-03-13T03:56:58;13.20;99.90
1063;DHT22;520;50.932;6.962;2023-03-13T03:59:37;13.20;99.90
1063;DHT22;520;50.932;6.962;2023-03-13T04:02:03;13.20;99.90
1063;DHT22;520;50.932;6.962;2023-03-13T04:04:30;13.30;99.90
1063;DHT22;520;50.932;6.962;2023-03-13T04:06:57;13.30;99.90
1063;DHT22;520;50.932;6.962;2023-03-13T04:09:24;13.40;99.90
1063;DHT22;520;50.932;6.962;2023-03-13T04:11:51;13.30;99.90
1063;DHT22;520;50.932;6.962;2023-03-13T04:14:20;13.40;99.90
1063;DHT22;520;50.932;6.962;2023-03-13T04:16:47;13.40;99.90
1063;DHT22;520;50.932;6.962;2023-03-13T04:19:16;13.50;99.90
1063;DHT22;520;50.932;6.962;2023-03-13T04:21:47;13.50;99.90
1063;DHT22;520;50.932;6.962;2023-03-13T04:24:14;13.50;99.90
1063;DHT22;520;50.932;6.962;2023-03-13T04:26:55;13.50;99.90
1063;DHT22;520;50.932;6.962;2023-03-13T04:29:25;13.60;99.90
1063;DHT22;520;50.932;6.962;2023-03-13T04:31:52;13.70;99.90
1063;DHT22;520;50.932;6.962;2023-03-13T04:34:21;13.60;99.90
1063;DHT22;520;50.932;6.962;2023-03-13T04:36:49;13.60;99.90
1063;DHT22;520;50.932;6.962;2023-03-13T04:39:18;13.50;99.90
1063;DHT22;520;50.932;6.962;2023-03-13T04:41:51;13.60;99.90
1063;DHT22;520;50.932;6.962;2023-03-13T04:44:19;13.70;99.90
1063;DHT22;520;50.932;6.962;2023-03-13T04:46:47;13.60;99.90
1063;DHT22;520;50.932;6.962;2023-03-13T04:49:17;13.70;99.90
1063;DHT22;520;50.932;6.962;2023-03-13T04:51:44;13.60;99.90
1063;DHT22;520;50.932;6.962;2023-03-13T04:54:12;13.60;99.90
1063;DHT22;520;50.932;6.962;2023-03-13T04:56:39;13.70;99.90
1063;DHT22;520;50.932;6.962;2023-03-13T04:59:13;13.70;99.90
1063;DHT22;520;50.932;6.962;2023-03-13T05:01:41;13.70;99.90
1063;DHT22;520;50.932;6.962;2023-03-13T05:04:12;13.70;99.90
1063;DHT22;520;50.932;6.962;2023-03-13T05:06:42;13.70;99.90
1063;DHT22;520;50.932;6.962;2023-03-13T05:09:15;13.70;99.90
1063;DHT22;520;50.932;6.962;2023-03-13T05:11:47;13.70;99.90
1063;DHT22;520;50.932;6.962;2023-03-13T05:14:19;13.70;99.90
1063;DHT22;520;50.932;6.962;2023-03-13T05:16:49;13.70;99.90
1063;DHT22;520;50.932;6.962;2023-03-13T05:19:21;13.80;99.90
1063;DHT22;520;50.932;6.962;2023-03-13T05:21:51;13.80;99.90
1063;DHT22;520;50.932;6.962;2023-03-13T05:24:21;13.90;99.90
1063;DHT22;520;50.932;6.962;2023-03-13T05:26:49;13.90;99.90
1063;DHT22;520;50.932;6.962;2023-03-13T05:29:17;13.80;99.90
1063;DHT22;520;50.932;6.962;2023-03-13T05:31:56;13.70;99.90
1063;DHT22;520;50.932;6.962;2023-03-13T05:34:28;13.80;99.90
1063;DHT22;520;50.932;6.962;2023-03-13T05:36:57;14.00;99.90
1063;DHT22;520;50.932;6.962;2023-03-13T05:39:28;13.90;99.90
1063;DHT22;520;50.932;6.962;2023-03-13T05:41:56;13.90;99.90
1063;DHT22;520;50.932;6.962;2023-03-13T05:44:28;13.90;99.90
1063;DHT22;520;50.932;6.962;2023-03-13T05:47:06;13.90;99.90
1063;DHT22;520;50.932;6.962;2023-03-13T05:49:45;14.00;99.90
1063;DHT22;520;50.932;6.962;2023-03-13T05:52:15;14.10;99.90
1063;DHT22;520;50.932;6.962;2023-03-13T05:54:45;14.10;99.90
1063;DHT22;520;50.932;6.962;2023-03-13T05:57:13;14.10;99.90
1063;DHT22;520;50.932;6.962;2023-03-13T05:59:42;14.00;99.90
1063;DHT22;520;50.932;6.962;2023-03-13T06:04:45;14.00;99.90
1063;DHT22;520;50.932;6.962;2023-03-13T06:07:13;14.10;99.90
1063;DHT22;520;50.932;6.962;2023-03-13T06:09:40;14.00;99.90
1063;DHT22;520;50.932;6.962;2023-03-13T06:12:10;14.00;99.90
1063;DHT22;520;50.932;6.962;2023-03-13T06:14:38;14.00;99.90
1063;DHT22;520;50.932;6.962;2023-03-13T06:17:08;14.10;99.90
1063;DHT22;520;50.932;6.962;2023-03-13T06:19:40;14.10;99.90
1063;DHT22;520;50.932;6.962;2023-03-13T06:22:20;14.20;99.90
1063;DHT22;520;50.932;6.962;2023-03-13T06:25:01;14.30;99.90
1063;DHT22;520;50.932;6.962;2023-03-13T06:27:31;14.20;99.90
1063;DHT22;520;50.932;6.962;2023-03-13T06:29:58;14.30;99.90
1063;DHT22;520;50.932;6.962;2023-03-13T06:32:27;14.50;99.90
1063;DHT22;520;50.932;6.962;2023-03-13T06:35:03;14.50;99.90
1063;DHT22;520;50.932;6.962;2023-03-13T06:37:30;14.50;99.90
1063;DHT22;520;50.932;6.962;2023-03-13T06:40:03;14.50;99.90
1063;DHT22;520;50.932;6.962;2023-03-13T06:42:38;14.50;99.90
1063;DHT22;520;50.932;6.962;2023-03-13T06:45:11;14.50;99.90
1063;DHT22;520;50.932;6.962;2023-03-13T06:47:38;14.50;99.90
1063;DHT22;520;50.932;6.962;2023-03-13T06:52:53;14.60;99.90
1063;DHT22;520;50.932;6.962;2023-03-13T06:55:20;14.70;99.90
1063;DHT22;520;50.932;6.962;2023-03-13T06:57:51;14.60;99.90
1063;DHT22;520;50.932;6.962;2023-03-13T07:00:19;14.70;99.90
1063;DHT22;520;50.932;6.962;2023-03-13T07:02:46;14.80;99.90
1063;DHT22;520;50.932;6.962;2023-03-13T07:05:17;14.60;99.90
1063;DHT22;520;50.932;6.962;2023-03-13T07:07:56;14.70;99.90
1063;DHT22;520;50.932;6.962;2023-03-13T07:10:32;14.90;99.90
1063;DHT22;520;50.932;6.962;2023-03-13T07:13:01;14.90;99.90
1063;DHT22;520;50.932;6.962;2023-03-13T07:15:31;14.90;99.90
1063;DHT22;520;50.932;6.962;2023-03-13T07:18:01;15.00;99.90
1063;DHT22;520;50.932;6.962;2023-03-13T07:20:32;14.80;99.90
1063;DHT22;520;50.932;6.962;2023-03-13T07:23:03;14.80;99.90
1063;DHT22;520;50.932;6.962;2023-03-13T07:25:36;14.70;99.90
1063;DHT22;520;50.932;6.962;2023-03-13T07:28:07;14.50;99.90
1063;DHT22;520;50.932;6.962;2023-03-13T07:30:36;14.30;99.90
1063;DHT22;520;50.932;6.962;2023-03-13T07:33:05;14.20;99.90
1063;DHT22;520;50.932;6.962;2023-03-13T07:35:49;14.20;99.90
1063;DHT22;520;50.932;6.962;2023-03-13T07:38:17;14.20;99.90
1063;DHT22;520;50.932;6.962;2023-03-13T07:40:52;14.50;99.90
1063;DHT22;520;50.932;6.962;2023-03-13T07:43:22;14.30;99.90
1063;DHT22;520;50.932;6.962;2023-03-13T07:46:03;14.50;99.90
1063;DHT22;520;50.932;6.962;2023-03-13T07:48:37;14.70;99.90
1063;DHT22;520;50.932;6.962;2023-03-13T07:51:13;15.00;99.90
1063;DHT22;520;50.932;6.962;2023-03-13T07:53:41;15.10;99.90
1063;DHT22;520;50.932;6.962;2023-03-13T07:56:13;15.30;99.90
1063;DHT22;520;50.932;6.962;2023-03-13T07:58:43;15.30;99.90
1063;DHT22;520;50.932;6.962;2023-03-13T08:01:26;15.60;99.90
1063;DHT22;520;50.932;6.962;2023-03-13T08:04:04;15.70;99.30
1063;DHT22;520;50.932;6.962;2023-03-13T08:06:33;15.50;99.40
1063;DHT22;520;50.932;6.962;2023-03-13T08:09:02;15.60;99.90
1063;DHT22;520;50.932;6.962;2023-03-13T08:11:48;15.20;99.60
1063;DHT22;520;50.932;6.962;2023-03-13T08:14:24;15.20;99.90
1063;DHT22;520;50.932;6.962;2023-03-13T08:16:54;15.40;99.90
1063;DHT22;520;50.932;6.962;2023-03-13T08:19:26;15.50;99.50
1063;DHT22;520;50.932;6.962;2023-03-13T08:22:14;15.70;99.00
1063;DHT22;520;50.932;6.962;2023-03-13T08:24:44;15.50;99.10
1063;DHT22;520;50.932;6.962;2023-03-13T08:27:11;15.40;99.40
1063;DHT22;520;50.932;6.962;2023-03-13T08:29:43;15.50;99.40
1063;DHT22;520;50.932;6.962;2023-03-13T08:32:14;15.70;98.80
1063;DHT22;520;50.932;6.962;2023-03-13T08:34:44;15.70;98.60
1063;DHT22;520;50.932;6.962;2023-03-13T08:37:16;15.80;98.60
1063;DHT22;520;50.932;6.962;2023-03-13T08:39:43;15.60;99.00
1063;DHT22;520;50.932;6.962;2023-03-13T08:42:15;15.70;99.30
1063;DHT22;520;50.932;6.962;2023-03-13T08:44:42;15.60;99.50
1063;DHT22;520;50.932;6.962;2023-03-13T08:47:10;15.50;99.90
1063;DHT22;520;50.932;6.962;2023-03-13T08:49:38;15.30;99.90
1063;DHT22;520;50.932;6.962;2023-03-13T08:52:05;15.00;99.90
1063;DHT22;520;50.932;6.962;2023-03-13T08:54:35;15.00;99.90
1063;DHT22;520;50.932;6.962;2023-03-13T08:57:05;15.10;99.90
1063;DHT22;520;50.932;6.962;2023-03-13T08:59:36;15.10;99.90
1063;DHT22;520;50.932;6.962;2023-03-13T09:02:08;15.00;99.90
1063;DHT22;520;50.932;6.962;2023-03-13T09:04:35;14.90;99.90
1063;DHT22;520;50.932;6.962;2023-03-13T09:07:03;15.00;99.90
1063;DHT22;520;50.932;6.962;2023-03-13T09:09:29;15.00;99.90
1063;DHT22;520;50.932;6.962;2023-03-13T09:12:02;15.00;99.90
1063;DHT22;520;50.932;6.962;2023-03-13T09:14:29;15.10;99.90
1063;DHT22;520;50.932;6.962;2023-03-13T09:17:02;15.00;99.90
1063;DHT22;520;50.932;6.962;2023-03-13T09:19:30;15.20;99.90
1063;DHT22;520;50.932;6.962;2023-03-13T09:21:57;15.50;99.90
1063;DHT22;520;50.932;6.962;2023-03-13T09:24:37;15.50;99.90
1063;DHT22;520;50.932;6.962;2023-03-13T09:27:06;15.60;99.90
1063;DHT22;520;50.932;6.962;2023-03-13T09:29:34;15.50;99.90
1063;DHT22;520;50.932;6.962;2023-03-13T09:32:05;15.40;99.90
1063;DHT22;520;50.932;6.962;2023-03-13T09:34:32;15.60;99.90
1063;DHT22;520;50.932;6.962;2023-03-13T09:37:00;15.60;99.90
1063;DHT22;520;50.932;6.962;2023-03-13T09:39:27;15.90;99.90
1063;DHT22;520;50.932;6.962;2023-03-13T09:42:17;15.80;99.90
1063;DHT22;520;50.932;6.962;2023-03-13T09:45:01;15.50;99.90
1063;DHT22;520;50.932;6.962;2023-03-13T09:47:45;15.60;99.90
1063;DHT22;520;50.932;6.962;2023-03-13T09:50:41;15.80;99.90
1063;DHT22;520;50.932;6.962;2023-03-13T09:53:30;15.90;99.90
1063;DHT22;520;50.932;6.962;2023-03-13T09:56:02;16.00;99.90
1063;DHT22;520;50.932;6.962;2023-03-13T09:58:31;16.00;99.90
1063;DHT22;520;50.932;6.962;2023-03-13T10:01:03;15.90;99.90
1063;DHT22;520;50.932;6.962;2023-03-13T10:03:37;15.90;99.90
1063;DHT22;520;50.932;6.962;2023-03-13T10:06:15;15.80;99.90
1063;DHT22;520;50.932;6.962;2023-03-13T10:08:43;16.00;99.90
1063;DHT22;520;50.932;6.962;2023-03-13T10:16:47;16.10;99.90
1063;DHT22;520;50.932;6.962;2023-03-13T10:19:24;16.10;99.90
1063;DHT22;520;50.932;6.962;2023-03-13T10:21:53;16.40;99.90
1063;DHT22;520;50.932;6.962;2023-03-13T10:24:46;16.50;99.90
1063;DHT22;520;50.932;6.962;2023-03-13T10:27:15;16.60;99.90
1063;DHT22;520;50.932;6.962;2023-03-13T10:29:42;16.60;99.90
1063;DHT22;520;50.932;6.962;2023-03-13T10:32:12;16.30;99.90
1063;DHT22;520;50.932;6.962;2023-03-13T10:35:00;16.40;99.90
1063;DHT22;520;50.932;6.962;2023-03-13T10:37:41;16.70;99.90
1063;DHT22;520;50.932;6.962;2023-03-13T10:40:23;16.80;99.50
1063;DHT22;520;50.932;6.962;2023-03-13T10:43:02;16.80;99.70
1063;DHT22;520;50.932;6.962;2023-03-13T10:45:35;17.10;99.30
1063;DHT22;520;50.932;6.962;2023-03-13T10:48:14;17.50;98.40
1063;DHT22;520;50.932;6.962;2023-03-13T10:50:44;17.40;98.10
1063;DHT22;520;50.932;6.962;2023-03-13T10:56:12;17.50;97.90
1063;DHT22;520;50.932;6.962;2023-03-13T11:01:25;17.50;97.40
1063;DHT22;520;50.932;6.962;2023-03-13T11:03:56;17.40;97.10
1063;DHT22;520;50.932;6.962;2023-03-13T11:06:30;17.80;96.60
1063;DHT22;520;50.932;6.962;2023-03-13T11:09:09;17.50;96.80
1063;DHT22;520;50.932;6.962;2023-03-13T11:14:23;17.90;96.80
1063;DHT22;520;50.932;6.962;2023-03-13T11:25:41;18.10;96.40
1063;DHT22;520;50.932;6.962;2023-03-13T11:31:00;17.70;96.30
1063;DHT22;520;50.932;6.962;2023-03-13T11:37:13;17.90;97.20
1063;DHT22;520;50.932;6.962;2023-03-13T11:57:33;19.00;95.00
1063;DHT22;520;50.932;6.962;2023-03-13T12:00:46;19.30;93.90
1063;DHT22;520;50.932;6.962;2023-03-13T12:03:37;19.70;93.10
1063;DHT22;520;50.932;6.962;2023-03-13T12:06:20;19.30;93.20
1063;DHT22;520;50.932;6.962;2023-03-13T12:26:36;18.30;93.90
1063;DHT22;520;50.932;6.962;2023-03-13T12:31:58;19.10;92.40
1063;DHT22;520;50.932;6.962;2023-03-13T12:40:15;19.00;91.80
1063;DHT22;520;50.932;6.962;2023-03-13T12:42:48;19.10;91.90
1063;DHT22;520;50.932;6.962;2023-03-13T12:45:18;18.80;92.20
1063;DHT22;520;50.932;6.962;2023-03-13T12:54:38;18.30;93.60
1063;DHT22;520;50.932;6.962;2023-03-13T12:56:38;18.70;93.20
1063;DHT22;520;50.932;6.962;2023-03-13T12:59:29;18.90;92.40
1063;DHT22;520;50.932;6.962;2023-03-13T13:01:58;19.00;92.00
1063;DHT22;520;50.932;6.962;2023-03-13T13:04:27;18.70;92.50
1063;DHT22;520;50.932;6.962;2023-03-13T13:09:30;18.80;92.70
1063;DHT22;520;50.932;6.962;2023-03-13T13:12:21;18.90;92.20
1063;DHT22;520;50.932;6.962;2023-03-13T13:19:55;18.40;92.70
1063;DHT22;520;50.932;6.962;2023-03-13T13:35:46;17.80;95.20
1063;DHT22;520;50.932;6.962;2023-03-13T13:38:38;17.70;95.10
1063;DHT22;520;50.932;6.962;2023-03-13T13:47:02;18.00;95.40
1063;DHT22;520;50.932;6.962;2023-03-13T13:49:34;18.10;94.90
1063;DHT22;520;50.932;6.962;2023-03-13T13:57:17;18.00;95.40
1063;DHT22;520;50.932;6.962;2023-03-13T13:59:51;17.70;95.90
1063;DHT22;520;50.932;6.962;2023-03-13T14:02:36;17.80;96.40
1063;DHT22;520;50.932;6.962;2023-03-13T14:05:30;18.00;95.90
1063;DHT22;520;50.932;6.962;2023-03-13T14:08:16;18.10;95.80
1063;DHT22;520;50.932;6.962;2023-03-13T14:10:53;18.20;95.70
1063;DHT22;520;50.932;6.962;2023-03-13T14:13:29;18.20;95.30
1063;DHT22;520;50.932;6.962;2023-03-13T14:15:56;18.20;95.60
1063;DHT22;520;50.932;6.962;2023-03-13T14:18:28;18.60;95.00
1063;DHT22;520;50.932;6.962;2023-03-13T14:21:03;18.70;94.50
1063;DHT22;520;50.932;6.962;2023-03-13T14:23:34;18.70;94.30
1063;DHT22;520;50.932;6.962;2023-03-13T14:26:20;18.50;94.30
1063;DHT22;520;50.932;6.962;2023-03-13T14:28:51;18.50;94.60
1063;DHT22;520;50.932;6.962;2023-03-13T14:33:56;18.40;94.70
1063;DHT22;520;50.932;6.962;2023-03-13T14:36:25;18.40;94.70
1063;DHT22;520;50.932;6.962;2023-03-13T14:38:52;18.30;94.30
1063;DHT22;520;50.932;6.962;2023-03-13T14:41:35;18.30;94.30
1063;DHT22;520;50.932;6.962;2023-03-13T14:44:13;18.20;94.60
1063;DHT22;520;50.932;6.962;2023-03-13T14:47:00;18.30;94.60
1063;DHT22;520;50.932;6.962;2023-03-13T14:49:29;18.20;94.30
1063;DHT22;520;50.932;6.962;2023-03-13T14:52:04;18.30;94.10
1063;DHT22;520;50.932;6.962;2023-03-13T14:54:34;18.20;94.10
1063;DHT22;520;50.932;6.962;2023-03-13T14:57:14;18.10;94.40
1063;DHT22;520;50.932;6.962;2023-03-13T14:59:42;18.20;94.30
1063;DHT22;520;50.932;6.962;2023-03-13T15:02:21;18.20;94.30
1063;DHT22;520;50.932;6.962;2023-03-13T15:05:05;18.00;94.60
1063;DHT22;520;50.932;6.962;2023-03-13T15:07:47;17.90;94.70
1063;DHT22;520;50.932;6.962;2023-03-13T15:10:28;17.70;95.10
1063;DHT22;520;50.932;6.962;2023-03-13T15:13:22;17.90;95.00
1063;DHT22;520;50.932;6.962;2023-03-13T15:15:50;17.80;94.80
1063;DHT22;520;50.932;6.962;2023-03-13T15:18:22;17.60;94.90
1063;DHT22;520;50.932;6.962;2023-03-13T15:20:59;17.50;95.30
1063;DHT22;520;50.932;6.962;2023-03-13T15:23:51;17.70;95.00
1063;DHT22;520;50.932;6.962;2023-03-13T15:26:21;17.90;94.60
1063;DHT22;520;50.932;6.962;2023-03-13T15:28:52;17.70;94.90
1063;DHT22;520;50.932;6.962;2023-03-13T15:31:26;17.50;95.30
1063;DHT22;520;50.932;6.962;2023-03-13T15:33:58;17.60;95.20
1063;DHT22;520;50.932;6.962;2023-03-13T15:36:34;17.60;94.60
1063;DHT22;520;50.932;6.962;2023-03-13T15:39:02;17.50;94.90
1063;DHT22;520;50.932;6.962;2023-03-13T15:41:32;17.40;95.10
1063;DHT22;520;50.932;6.962;2023-03-13T15:44:01;17.50;94.70
1063;DHT22;520;50.932;6.962;2023-03-13T15:46:29;17.50;94.60
1063;DHT22;520;50.932;6.962;2023-03-13T15:48:57;17.70;94.00
1063;DHT22;520;50.932;6.962;2023-03-13T15:51:24;17.50;94.30
1063;DHT22;520;50.932;6.962;2023-03-13T15:53:57;17.60;94.40
1063;DHT22;520;50.932;6.962;2023-03-13T16:01:49;17.50;93.80
1063;DHT22;520;50.932;6.962;2023-03-13T16:04:19;17.60;93.60
1063;DHT22;520;50.932;6.962;2023-03-13T16:06:46;17.70;93.60
1063;DHT22;520;50.932;6.962;2023-03-13T16:09:13;17.80;93.40
1063;DHT22;520;50.932;6.962;2023-03-13T16:11:43;17.80;92.50
1063;DHT22;520;50.932;6.962;2023-03-13T16:16:50;18.10;91.60
1063;DHT22;520;50.932;6.962;2023-03-13T16:19:20;18.00;91.40
1063;DHT22;520;50.932;6.962;2023-03-13T16:21:50;18.10;91.50
1063;DHT22;520;50.932;6.962;2023-03-13T16:24:18;18.10;91.60
1063;DHT22;520;50.932;6.962;2023-03-13T16:26:49;18.20;91.60
1063;DHT22;520;50.932;6.962;2023-03-13T16:31:54;18.10;91.30
1063;DHT22;520;50.932;6.962;2023-03-13T16:34:21;18.10;91.40
1063;DHT22;520;50.932;6.962;2023-03-13T16:36:47;18.30;91.00
1063;DHT22;520;50.932;6.962;2023-03-13T16:39:16;18.00;91.10
1063;DHT22;520;50.932;6.962;2023-03-13T16:41:45;17.70;91.00
1063;DHT22;520;50.932;6.962;2023-03-13T16:44:22;17.50;91.00
1063;DHT22;520;50.932;6.962;2023-03-13T16:46:48;17.30;91.10
1063;DHT22;520;50.932;6.962;2023-03-13T16:49:30;17.20;91.20
1063;DHT22;520;50.932;6.962;2023-03-13T16:51:56;17.10;91.30
1063;DHT22;520;50.932;6.962;2023-03-13T16:54:23;17.00;91.30
1063;DHT22;520;50.932;6.962;2023-03-13T16:56:50;16.90;91.50
1063;DHT22;520;50.932;6.962;2023-03-13T16:59:17;16.80;91.70
1063;DHT22;520;50.932;6.962;2023-03-13T17:01:44;16.80;91.80
1063;DHT22;520;50.932;6.962;2023-03-13T17:04:12;16.90;91.70
1063;DHT22;520;50.932;6.962;2023-03-13T17:06:41;16.80;91.90
1063;DHT22;520;50.932;6.962;2023-03-13T17:09:15;16.80;92.00
1063;DHT22;520;50.932;6.962;2023-03-13T17:11:43;16.80;92.00
1063;DHT22;520;50.932;6.962;2023-03-13T17:14:09;17.10;91.20
1063;DHT22;520;50.932;6.962;2023-03-13T17:16:43;16.80;91.20
1063;DHT22;520;50.932;6.962;2023-03-13T17:19:14;16.80;91.60
1063;DHT22;520;50.932;6.962;2023-03-13T17:21:42;16.60;91.40
1063;DHT22;520;50.932;6.962;2023-03-13T17:24:09;16.60;91.30
1063;DHT22;520;50.932;6.962;2023-03-13T17:26:38;16.50;90.90
1063;DHT22;520;50.932;6.962;2023-03-13T17:29:17;16.50;90.50
1063;DHT22;520;50.932;6.962;2023-03-13T17:32:11;16.50;90.60
1063;DHT22;520;50.932;6.962;2023-03-13T17:34:40;16.30;90.60
1063;DHT22;520;50.932;6.962;2023-03-13T17:37:18;16.30;90.80
1063;DHT22;520;50.932;6.962;2023-03-13T17:39:54;16.30;90.80
1063;DHT22;520;50.932;6.962;2023-03-13T17:42:27;16.30;90.80
1063;DHT22;520;50.932;6.962;2023-03-13T17:44:56;16.30;90.90
1063;DHT22;520;50.932;6.962;2023-03-13T17:47:32;16.50;90.70
1063;DHT22;520;50.932;6.962;2023-03-13T17:49:59;16.40;90.80
1063;DHT22;520;50.932;6.962;2023-03-13T17:52:34;16.30;90.90
1063;DHT22;520;50.932;6.962;2023-03-13T17:55:10;16.60;90.50
1063;DHT22;520;50.932;6.962;2023-03-13T17:57:40;16.80;90.00
1063;DHT22;520;50.932;6.962;2023-03-13T18:02:50;16.90;89.10
1063;DHT22;520;50.932;6.962;2023-03-13T18:05:24;16.90;89.30
1063;DHT22;520;50.932;6.962;2023-03-13T18:07:57;16.80;90.00
1063;DHT22;520;50.932;6.962;2023-03-13T18:10:32;16.60;90.00
1063;DHT22;520;50.932;6.962;2023-03-13T18:13:05;16.60;90.30
1063;DHT22;520;50.932;6.962;2023-03-13T18:15:34;16.60;90.30
1063;DHT22;520;50.932;6.962;2023-03-13T18:18:03;16.60;90.50
1063;DHT22;520;50.932;6.962;2023-03-13T18:20:34;16.50;90.70
1063;DHT22;520;50.932;6.962;2023-03-13T18:23:02;16.50;90.80
1063;DHT22;520;50.932;6.962;2023-03-13T18:25:29;16.50;91.00
1063;DHT22;520;50.932;6.962;2023-03-13T18:28:02;16.50;91.00
1063;DHT22;520;50.932;6.962;2023-03-13T18:30:36;16.50;91.00
1063;DHT22;520;50.932;6.962;2023-03-13T18:33:11;16.50;91.10
1063;DHT22;520;50.932;6.962;2023-03-13T18:35:46;16.40;91.20
1063;DHT22;520;50.932;6.962;2023-03-13T18:38:13;16.30;91.40
1063;DHT22;520;50.932;6.962;2023-03-13T18:41:07;16.40;91.50
1063;DHT22;520;50.932;6.962;2023-03-13T18:43:45;16.30;91.70
1063;DHT22;520;50.932;6.962;2023-03-13T18:46:22;16.30;91.80
1063;DHT22;520;50.932;6.962;2023-03-13T18:48:54;16.40;91.80
1063;DHT22;520;50.932;6.962;2023-03-13T18:51:27;16.30;91.60
1063;DHT22;520;50.932;6.962;2023-03-13T18:54:00;16.40;91.70
1063;DHT22;520;50.932;6.962;2023-03-13T18:56:29;16.30;91.70
1063;DHT22;520;50.932;6.962;2023-03-13T18:59:03;16.10;92.00
1063;DHT22;520;50.932;6.962;2023-03-13T19:01:40;16.20;92.40
1063;DHT22;520;50.932;6.962;2023-03-13T19:04:37;16.30;92.00
1063;DHT22;520;50.932;6.962;2023-03-13T19:07:34;16.40;91.90
1063;DHT22;520;50.932;6.962;2023-03-13T19:10:28;16.10;92.20